KPTW 171754Z AUTO 23005KT 8SM SCT036 BKN047 BKN055 32/24 A2995 RMK AO2 SLP135 T03220239 10322 20244 58014